Terminal Aerodrome Forecast
Issued by NWS Grand Forks, ND

Home | Current Version | Previous Version | Text Only | Print | Product List | Glossary On
Versions: 1 2 3 4 5 6 7 8 9 10 11 12 13 14 15 16 17 18 19 20 21 22 23
000
FTUS43 KFGF 270500 CCA
TAFGFK
TAF COR
KGFK 270534Z 2706/2806 VRB03KT 2SM BR OVC002
      TEMPO 2706/2708 1/2SM FG
     FM270800 16005KT 1SM BR BKN002
     FM271400 17004KT P6SM BKN015
     FM271800 16014KT P6SM BKN250=

USA.gov is the U.S. government's official web portal to all federal, state and local government web resources and services.